createdAt,value
2018-09-05T00:00:43.719Z,101363.61
2018-09-05T00:01:47.936Z,101365.64
2018-09-05T00:02:52.330Z,101363.58
2018-09-05T00:03:56.489Z,101354.33
2018-09-05T00:05:01.144Z,101361.91
2018-09-05T00:06:05.449Z,101356.34
2018-09-05T00:07:09.677Z,101357.38
2018-09-05T00:08:13.877Z,101357.03
2018-09-05T00:09:18.090Z,101360.73
2018-09-05T00:10:22.314Z,101363.42
2018-09-05T00:11:26.470Z,101361.23
2018-09-05T00:12:30.810Z,101360.73
2018-09-05T00:13:34.994Z,101362.42
2018-09-05T00:14:39.176Z,101358.87
2018-09-05T00:15:43.322Z,101357.38
2018-09-05T00:16:47.524Z,101354.68
2018-09-05T00:17:51.679Z,101354.68
2018-09-05T00:18:56.043Z,101356.88
2018-09-05T00:20:00.283Z,101350.63
2018-09-05T00:21:04.445Z,101347.59
2018-09-05T00:22:08.605Z,101352.98
2018-09-05T00:23:13.020Z,101349.63
2018-09-05T00:24:17.197Z,101351.64
2018-09-05T00:25:21.443Z,101354.33
2018-09-05T00:26:25.727Z,101356.38
2018-09-05T00:27:29.940Z,101354.33
2018-09-05T00:28:34.170Z,101358.38
2018-09-05T00:29:38.415Z,101354.52
2018-09-05T00:30:42.576Z,101354.36
2018-09-05T00:31:46.735Z,101349.13
2018-09-05T00:32:50.947Z,101350.48
2018-09-05T00:33:55.306Z,101348.47
2018-09-05T00:34:59.554Z,101352.67
2018-09-05T00:36:03.888Z,101348.31
2018-09-05T00:37:08.195Z,101346.63
2018-09-05T00:38:12.326Z,101353.02
2018-09-05T00:39:16.530Z,101342.23
2018-09-05T00:40:20.850Z,101345.28
2018-09-05T00:41:25.133Z,101347.28
2018-09-05T00:42:29.301Z,101345.94
2018-09-05T00:43:33.528Z,101341.89
2018-09-05T00:44:37.662Z,101345.78
2018-09-05T00:45:42.168Z,101343.08
2018-09-05T00:46:46.477Z,101342.05
2018-09-05T00:47:50.672Z,101344.24
2018-09-05T00:48:55.168Z,101340.55
2018-09-05T00:49:59.776Z,101346.94
2018-09-05T00:51:04.015Z,101338.01
2018-09-05T00:52:08.259Z,101337.50
2018-09-05T00:53:12.434Z,101334.50
2018-09-05T00:54:16.705Z,101339.89
2018-09-05T00:55:20.871Z,101341.89
2018-09-05T00:56:25.035Z,101340.23
2018-09-05T00:57:29.307Z,101339.89
2018-09-05T00:58:33.554Z,101339.54
2018-09-05T00:59:37.907Z,101340.89
2018-09-05T01:00:42.073Z,101340.55
2018-09-05T01:01:46.276Z,101338.38
2018-09-05T01:02:50.500Z,101334.00
2018-09-05T01:03:54.662Z,101335.84
2018-09-05T01:04:58.897Z,101335.84
2018-09-05T01:06:03.375Z,101336.34
2018-09-05T01:07:18.743Z,101336.84
2018-09-05T01:08:22.903Z,101338.38
2018-09-05T01:09:27.283Z,101335.34
2018-09-05T01:10:31.473Z,101338.88
2018-09-05T01:11:35.681Z,101344.27
2018-09-05T01:12:39.971Z,101338.53
2018-09-05T01:13:44.198Z,101339.88
2018-09-05T01:14:49.264Z,101337.69
2018-09-05T01:15:53.466Z,101335.53
2018-09-05T01:16:57.631Z,101341.42
2018-09-05T01:18:02.000Z,101346.30
2018-09-05T01:19:06.214Z,101344.11
2018-09-05T01:20:10.653Z,101335.69
2018-09-05T01:21:14.899Z,101345.96
2018-09-05T01:22:19.147Z,101344.27
2018-09-05T01:23:23.428Z,101342.61
2018-09-05T01:24:28.010Z,101346.30
2018-09-05T01:25:32.159Z,101346.65
2018-09-05T01:26:36.331Z,101343.61
2018-09-05T01:27:40.535Z,101349.34
2018-09-05T01:28:44.787Z,101343.27
2018-09-05T01:29:49.325Z,101346.99
2018-09-05T01:30:53.550Z,101340.91
2018-09-05T01:31:57.750Z,101342.45
2018-09-05T01:33:01.929Z,101347.30
2018-09-05T01:34:06.127Z,101341.91
2018-09-05T01:35:10.554Z,101342.10
2018-09-05T01:36:16.352Z,101343.95
2018-09-05T01:37:20.507Z,101341.25
2018-09-05T01:38:24.982Z,101342.25
2018-09-05T01:39:29.236Z,101342.44
2018-09-05T01:40:33.443Z,101337.20
2018-09-05T01:41:37.707Z,101337.05
2018-09-05T01:42:41.850Z,101337.23
2018-09-05T01:43:46.118Z,101335.36
2018-09-05T01:44:50.353Z,101336.70
2018-09-05T01:45:54.687Z,101336.04
2018-09-05T01:46:59.102Z,101335.20
2018-09-05T01:48:03.288Z,101332.16
2018-09-05T01:49:07.465Z,101332.16
2018-09-05T01:50:11.788Z,101335.20
2018-09-05T01:51:15.944Z,101332.16
2018-09-05T01:52:20.095Z,101338.08
2018-09-05T01:53:24.297Z,101334.03
2018-09-05T01:54:28.492Z,101333.19
2018-09-05T01:55:32.734Z,101330.16
2018-09-05T01:56:36.909Z,101331.16
2018-09-05T01:57:41.150Z,101333.53
2018-09-05T01:58:45.377Z,101334.19
2018-09-05T01:59:49.606Z,101333.52
2018-09-05T02:00:53.837Z,101336.37
2018-09-05T02:01:58.021Z,101333.86
2018-09-05T02:03:03.088Z,101331.32
2018-09-05T02:04:07.476Z,101332.36
2018-09-05T02:05:11.939Z,101328.97
2018-09-05T02:06:16.166Z,101334.03
2018-09-05T02:07:20.476Z,101331.50
2018-09-05T02:08:24.872Z,101334.19
2018-09-05T02:09:29.090Z,101335.19
2018-09-05T02:10:33.294Z,101334.87
2018-09-05T02:11:37.494Z,101334.53
2018-09-05T02:12:41.702Z,101339.91
2018-09-05T02:13:46.388Z,101340.91
2018-09-05T02:14:50.659Z,101332.52
2018-09-05T02:15:54.863Z,101335.22
2018-09-05T02:16:59.106Z,101333.52
2018-09-05T02:18:03.401Z,101339.75
2018-09-05T02:19:07.606Z,101334.87
2018-09-05T02:20:11.800Z,101337.06
2018-09-05T02:21:16.012Z,101333.87
2018-09-05T02:22:20.222Z,101339.25
2018-09-05T02:23:24.398Z,101338.22
2018-09-05T02:24:28.569Z,101341.77
2018-09-05T02:25:32.884Z,101344.30
2018-09-05T02:26:37.099Z,101342.77
2018-09-05T02:27:41.475Z,101337.73
2018-09-05T02:28:45.683Z,101339.23
2018-09-05T02:29:49.909Z,101344.47
2018-09-05T02:30:54.336Z,101337.55
2018-09-05T02:31:58.627Z,101342.78
2018-09-05T02:33:02.890Z,101340.75
2018-09-05T02:34:07.137Z,101339.56
2018-09-05T02:35:11.311Z,101336.22
2018-09-05T02:36:15.477Z,101342.27
2018-09-05T02:37:19.695Z,101337.23
2018-09-05T02:38:23.889Z,101339.42
2018-09-05T02:39:28.060Z,101339.92
2018-09-05T02:40:32.324Z,101340.24
2018-09-05T02:41:36.679Z,101339.41
2018-09-05T02:42:40.865Z,101336.55
2018-09-05T02:43:50.435Z,101334.52
2018-09-05T02:44:54.634Z,101337.38
2018-09-05T02:45:59.162Z,101335.02
2018-09-05T02:47:03.646Z,101336.22
2018-09-05T02:48:07.842Z,101334.68
2018-09-05T02:49:12.040Z,101339.56
2018-09-05T02:50:16.293Z,101333.18
2018-09-05T02:51:20.465Z,101332.14
2018-09-05T02:52:24.686Z,101339.73
2018-09-05T02:53:28.892Z,101334.84
2018-09-05T02:54:33.075Z,101330.80
2018-09-05T02:55:42.505Z,101331.14
2018-09-05T02:56:46.662Z,101332.48
2018-09-05T02:57:50.818Z,101328.45
2018-09-05T02:58:55.029Z,101328.10
2018-09-05T02:59:59.223Z,101333.49
2018-09-05T03:01:03.488Z,101332.33
2018-09-05T03:02:07.643Z,101334.34
2018-09-05T03:03:11.836Z,101334.52
2018-09-05T03:04:16.147Z,101337.88
2018-09-05T03:05:20.518Z,101335.52
2018-09-05T03:06:24.791Z,101333.86
2018-09-05T03:07:28.964Z,101336.20
2018-09-05T03:08:33.131Z,101335.02
2018-09-05T03:09:37.743Z,101337.39
2018-09-05T03:10:41.934Z,101336.55
2018-09-05T03:11:46.109Z,101334.54
2018-09-05T03:12:50.241Z,101332.00
2018-09-05T03:13:54.421Z,101334.20
2018-09-05T03:14:59.155Z,101328.65
2018-09-05T03:16:03.438Z,101343.46
2018-09-05T03:17:07.690Z,101330.16
2018-09-05T03:18:12.143Z,101328.98
2018-09-05T03:19:16.307Z,101332.50
2018-09-05T03:20:20.553Z,101325.45
2018-09-05T03:21:24.928Z,101329.48
2018-09-05T03:22:29.186Z,101329.48
2018-09-05T03:23:33.410Z,101329.14
2018-09-05T03:24:37.607Z,101329.14
2018-09-05T03:25:41.799Z,101324.76
2018-09-05T03:26:46.219Z,101329.14
2018-09-05T03:27:50.369Z,101331.84
2018-09-05T03:28:54.557Z,101328.64
2018-09-05T03:29:58.755Z,101323.60
2018-09-05T03:31:02.946Z,101323.07
2018-09-05T03:32:07.189Z,101323.77
2018-09-05T03:33:11.420Z,101324.08
2018-09-05T03:34:15.516Z,101328.11
2018-09-05T03:35:19.709Z,101328.46
2018-09-05T03:36:23.939Z,101330.50
2018-09-05T03:37:28.194Z,101330.50
2018-09-05T03:38:32.362Z,101327.81
2018-09-05T03:39:36.657Z,101332.16
2018-09-05T03:40:41.010Z,101326.77
2018-09-05T03:41:45.172Z,101329.47
2018-09-05T03:42:49.467Z,101325.93
2018-09-05T03:43:53.719Z,101327.63
2018-09-05T03:44:58.290Z,101327.63
2018-09-05T03:46:02.471Z,101328.47
2018-09-05T03:47:07.043Z,101329.81
2018-09-05T03:48:11.484Z,101328.47
2018-09-05T03:49:15.666Z,101331.16
2018-09-05T03:50:19.849Z,101333.01
2018-09-05T03:51:24.040Z,101330.81
2018-09-05T03:52:28.189Z,101327.81
2018-09-05T03:53:32.647Z,101337.55
2018-09-05T03:54:36.781Z,101331.84
2018-09-05T03:55:40.975Z,101331.50
2018-09-05T03:56:45.186Z,101329.16
2018-09-05T03:57:49.389Z,101332.16
2018-09-05T03:58:53.633Z,101333.20
2018-09-05T03:59:57.871Z,101336.20
2018-09-05T04:01:02.075Z,101339.24
2018-09-05T04:02:06.294Z,101337.39
2018-09-05T04:03:10.825Z,101336.05
2018-09-05T04:04:15.212Z,101334.52
2018-09-05T04:05:19.455Z,101334.20
2018-09-05T04:06:23.803Z,101337.55
2018-09-05T04:07:28.524Z,101334.86
2018-09-05T04:08:32.722Z,101338.22
2018-09-05T04:09:36.939Z,101338.56
2018-09-05T04:10:41.221Z,101337.55
2018-09-05T04:11:45.474Z,101337.38
2018-09-05T04:12:49.673Z,101332.48
2018-09-05T04:13:53.902Z,101334.52
2018-09-05T04:14:58.131Z,101334.02
2018-09-05T04:16:02.522Z,101335.87
2018-09-05T04:17:06.842Z,101338.56
2018-09-05T04:18:11.088Z,101334.52
2018-09-05T04:19:15.423Z,101333.67
2018-09-05T04:20:19.879Z,101335.87
2018-09-05T04:21:24.061Z,101333.17
2018-09-05T04:22:28.234Z,101331.33
2018-09-05T04:23:47.993Z,101334.52
2018-09-05T04:24:52.215Z,101331.83
2018-09-05T04:25:56.457Z,101326.28
2018-09-05T04:27:01.003Z,101337.55
2018-09-05T04:28:05.240Z,101332.67
2018-09-05T04:29:09.453Z,101327.44
2018-09-05T04:30:13.651Z,101328.63
2018-09-05T04:31:17.848Z,101328.63
2018-09-05T04:32:22.088Z,101327.63
2018-09-05T04:33:26.251Z,101328.13
2018-09-05T04:34:30.437Z,101331.14
2018-09-05T04:35:34.660Z,101327.09
2018-09-05T04:36:38.866Z,101328.44
2018-09-05T04:37:43.087Z,101328.13
2018-09-05T04:38:47.294Z,101329.79
2018-09-05T04:39:51.689Z,101331.14
2018-09-05T04:40:55.882Z,101330.83
2018-09-05T04:42:00.119Z,101338.91
2018-09-05T04:43:04.323Z,101336.71
2018-09-05T04:44:08.931Z,101337.72
2018-09-05T04:45:13.076Z,101339.06
2018-09-05T04:46:17.364Z,101331.48
2018-09-05T04:47:22.031Z,101333.36
2018-09-05T04:48:26.265Z,101338.22
2018-09-05T04:49:30.438Z,101335.86
2018-09-05T04:50:34.631Z,101337.05
2018-09-05T04:51:39.068Z,101343.61
2018-09-05T04:52:43.477Z,101340.06
2018-09-05T04:53:47.664Z,101348.99
2018-09-05T04:54:51.922Z,101339.22
2018-09-05T04:55:56.116Z,101346.64
2018-09-05T04:57:00.270Z,101345.30
2018-09-05T04:58:04.464Z,101346.99
2018-09-05T04:59:08.841Z,101340.76
2018-09-05T05:00:12.989Z,101344.30
2018-09-05T05:01:17.421Z,101343.27
2018-09-05T05:02:21.611Z,101348.34
2018-09-05T05:03:26.190Z,101347.80
2018-09-05T05:04:31.120Z,101350.00
2018-09-05T05:05:35.501Z,101351.34
2018-09-05T05:06:39.610Z,101345.64
2018-09-05T05:07:43.778Z,101353.04
2018-09-05T05:08:47.958Z,101352.69
2018-09-05T05:09:52.121Z,101352.69
2018-09-05T05:10:56.319Z,101355.73
2018-09-05T05:12:00.455Z,101349.50
2018-09-05T05:13:04.914Z,101350.34
2018-09-05T05:14:09.345Z,101356.23
2018-09-05T05:15:13.517Z,101351.34
2018-09-05T05:16:17.690Z,101354.04
2018-09-05T05:17:21.869Z,101353.04
2018-09-05T05:18:26.082Z,101354.38
2018-09-05T05:19:30.403Z,101354.04
2018-09-05T05:20:34.773Z,101355.73
2018-09-05T05:21:38.941Z,101357.42
2018-09-05T05:22:43.111Z,101362.81
2018-09-05T05:23:47.542Z,101366.86
2018-09-05T05:24:51.730Z,101359.27
2018-09-05T05:25:55.942Z,101357.08
2018-09-05T05:27:00.122Z,101357.92
2018-09-05T05:28:04.898Z,101361.12
2018-09-05T05:29:09.129Z,101361.63
2018-09-05T05:30:13.439Z,101365.16
2018-09-05T05:31:17.656Z,101366.52
2018-09-05T05:32:21.937Z,101362.81
2018-09-05T05:33:26.401Z,101363.63
2018-09-05T05:34:30.659Z,101367.17
2018-09-05T05:35:34.817Z,101362.81
2018-09-05T05:36:38.966Z,101364.98
2018-09-05T05:37:43.297Z,101372.56
2018-09-05T05:38:47.795Z,101371.05
2018-09-05T05:39:51.967Z,101368.52
2018-09-05T05:40:56.150Z,101364.48
2018-09-05T05:42:00.373Z,101370.20
2018-09-05T05:43:04.723Z,101366.52
2018-09-05T05:44:08.857Z,101368.17
2018-09-05T05:45:13.040Z,101368.87
2018-09-05T05:46:17.311Z,101371.22
2018-09-05T05:47:21.854Z,101372.06
2018-09-05T05:48:26.023Z,101370.72
2018-09-05T05:49:30.270Z,101373.41
2018-09-05T05:50:34.468Z,101375.92
2018-09-05T05:51:38.707Z,101376.27
2018-09-05T05:52:42.902Z,101372.06
2018-09-05T05:53:47.396Z,101377.77
2018-09-05T05:54:51.594Z,101380.31
2018-09-05T05:55:55.746Z,101378.11
2018-09-05T05:56:59.952Z,101379.31
2018-09-05T05:58:04.118Z,101386.36
2018-09-05T05:59:08.315Z,101383.51
2018-09-05T06:00:12.822Z,101386.02
2018-09-05T06:01:17.630Z,101383.66
2018-09-05T06:02:21.948Z,101387.02
2018-09-05T06:03:26.292Z,101379.47
2018-09-05T06:04:30.678Z,101380.62
2018-09-05T06:05:35.035Z,101389.06
2018-09-05T06:06:39.475Z,101386.67
2018-09-05T06:07:44.020Z,101385.02
2018-09-05T06:08:48.227Z,101387.02
2018-09-05T06:09:52.426Z,101389.56
2018-09-05T06:10:56.614Z,101391.06
2018-09-05T06:12:00.777Z,101385.83
2018-09-05T06:13:04.994Z,101389.72
2018-09-05T06:14:09.262Z,101389.22
2018-09-05T06:15:13.429Z,101388.72
2018-09-05T06:16:17.726Z,101390.72
2018-09-05T06:17:21.964Z,101393.77
2018-09-05T06:18:26.234Z,101394.08
2018-09-05T06:19:30.432Z,101389.37
2018-09-05T06:20:34.658Z,101391.88
2018-09-05T06:21:38.936Z,101389.06
2018-09-05T06:22:43.095Z,101390.76
2018-09-05T06:23:47.385Z,101391.41
2018-09-05T06:24:51.609Z,101386.67
2018-09-05T06:25:55.835Z,101388.72
2018-09-05T06:27:00.182Z,101393.42
2018-09-05T06:28:04.442Z,101390.03
2018-09-05T06:29:08.676Z,101395.27
2018-09-05T06:30:12.900Z,101386.48
2018-09-05T06:31:17.298Z,101388.33
2018-09-05T06:32:21.337Z,101385.48
2018-09-05T06:33:25.642Z,101387.48
2018-09-05T06:34:29.892Z,101385.47
2018-09-05T06:35:34.196Z,101385.28
2018-09-05T06:36:38.442Z,101381.39
2018-09-05T06:37:42.649Z,101382.92
2018-09-05T06:38:46.874Z,101385.27
2018-09-05T06:39:51.100Z,101383.23
2018-09-05T06:40:55.544Z,101380.69
2018-09-05T06:41:59.708Z,101382.02
2018-09-05T06:43:03.875Z,101382.87
2018-09-05T06:44:08.670Z,101379.48
2018-09-05T06:45:13.080Z,101379.63
2018-09-05T06:46:17.485Z,101383.36
2018-09-05T06:47:22.071Z,101384.52
2018-09-05T06:48:26.328Z,101389.75
2018-09-05T06:49:30.540Z,101384.16
2018-09-05T06:50:34.816Z,101391.25
2018-09-05T06:51:39.072Z,101387.55
2018-09-05T06:52:43.536Z,101383.81
2018-09-05T06:53:47.701Z,101386.85
2018-09-05T06:54:51.911Z,101390.20
2018-09-05T06:55:56.200Z,101390.89
2018-09-05T06:57:00.476Z,101396.44
2018-09-05T06:58:05.018Z,101390.34
2018-09-05T06:59:09.236Z,101394.73
2018-09-05T07:00:14.253Z,101395.08
2018-09-05T07:01:18.967Z,101393.88
2018-09-05T07:02:23.282Z,101392.33
2018-09-05T07:03:27.880Z,101401.11
2018-09-05T07:04:32.328Z,101400.92
2018-09-05T07:05:36.523Z,101398.91
2018-09-05T07:06:40.750Z,101403.64
2018-09-05T07:07:44.985Z,101401.78
2018-09-05T07:08:49.280Z,101405.98
2018-09-05T07:09:53.632Z,101404.47
2018-09-05T07:10:58.072Z,101399.22
2018-09-05T07:12:02.319Z,101398.21
2018-09-05T07:13:06.699Z,101400.22
2018-09-05T07:14:11.094Z,101398.70
2018-09-05T07:15:15.219Z,101399.01
2018-09-05T07:16:19.510Z,101398.50
2018-09-05T07:17:23.862Z,101392.44
2018-09-05T07:18:28.152Z,101397.14
2018-09-05T07:19:32.580Z,101393.09
2018-09-05T07:20:37.241Z,101399.14
2018-09-05T07:21:41.536Z,101396.62
2018-09-05T07:22:45.834Z,101391.53
2018-09-05T07:23:50.015Z,101400.47
2018-09-05T07:24:54.281Z,101393.72
2018-09-05T07:25:58.420Z,101393.87
2018-09-05T07:27:02.611Z,101394.05
2018-09-05T07:28:06.876Z,101393.34
2018-09-05T07:29:11.117Z,101393.69
2018-09-05T07:30:16.740Z,101391.64
2018-09-05T07:31:20.927Z,101390.94
2018-09-05T07:32:25.320Z,101395.33
2018-09-05T07:33:29.556Z,101393.27
2018-09-05T07:34:34.115Z,101392.77
2018-09-05T07:35:38.314Z,101393.45
2018-09-05T07:36:42.759Z,101397.00
2018-09-05T07:37:46.989Z,101395.28
2018-09-05T07:38:51.214Z,101396.95
2018-09-05T07:39:55.472Z,101404.88
2018-09-05T07:40:59.928Z,101400.33
2018-09-05T07:42:04.293Z,101397.62
2018-09-05T07:43:08.513Z,101395.23
2018-09-05T07:44:12.907Z,101402.33
2018-09-05T07:45:17.736Z,101404.52
2018-09-05T07:46:22.031Z,101404.33
2018-09-05T07:47:26.988Z,101399.97
2018-09-05T07:48:31.211Z,101400.98
2018-09-05T07:49:35.534Z,101401.82
2018-09-05T07:50:39.888Z,101395.23
2018-09-05T07:51:44.289Z,101404.18
2018-09-05T07:52:49.157Z,101402.33
2018-09-05T07:53:53.503Z,101402.33
2018-09-05T07:54:57.920Z,101404.02
2018-09-05T07:56:02.096Z,101404.33
2018-09-05T07:57:06.279Z,101406.36
2018-09-05T07:58:10.442Z,101403.97
2018-09-05T07:59:14.801Z,101402.95
2018-09-05T08:00:18.989Z,101401.94
2018-09-05T08:01:23.212Z,101404.64
2018-09-05T08:02:27.569Z,101402.59
2018-09-05T08:03:31.730Z,101399.72
2018-09-05T08:04:35.961Z,101409.32
2018-09-05T08:05:40.264Z,101402.40
2018-09-05T08:06:44.437Z,101411.16
2018-09-05T08:07:48.583Z,101408.80
2018-09-05T08:08:52.765Z,101408.59
2018-09-05T08:09:56.946Z,101401.47
2018-09-05T08:11:01.115Z,101410.94
2018-09-05T08:12:05.328Z,101412.13
2018-09-05T08:13:09.516Z,101408.21
2018-09-05T08:14:13.699Z,101405.65
2018-09-05T08:15:17.861Z,101409.67
2018-09-05T08:16:22.270Z,101403.91
2018-09-05T08:17:26.572Z,101405.73
2018-09-05T08:18:30.768Z,101409.92
2018-09-05T08:19:35.090Z,101406.35
2018-09-05T08:20:39.266Z,101404.29
2018-09-05T08:21:43.567Z,101413.22
2018-09-05T08:22:47.802Z,101403.05
2018-09-05T08:23:52.023Z,101404.56
2018-09-05T08:24:56.213Z,101408.25
2018-09-05T08:26:00.593Z,101407.55
2018-09-05T08:27:04.801Z,101403.12
2018-09-05T08:28:08.936Z,101415.59
2018-09-05T08:29:14.462Z,101407.78
2018-09-05T08:30:18.745Z,101404.71
2018-09-05T08:31:23.052Z,101411.30
2018-09-05T08:32:27.306Z,101406.03
2018-09-05T08:33:31.491Z,101406.67
2018-09-05T08:34:35.725Z,101398.89
2018-09-05T08:35:40.197Z,101403.92
2018-09-05T08:36:44.319Z,101401.89
2018-09-05T08:37:48.510Z,101401.19
2018-09-05T08:38:52.731Z,101404.02
2018-09-05T08:39:56.767Z,101398.44
2018-09-05T08:41:05.098Z,101396.72
2018-09-05T08:42:09.497Z,101396.20
2018-09-05T08:43:13.715Z,101403.30
2018-09-05T08:44:17.985Z,101395.86
2018-09-05T08:45:22.409Z,101395.66
2018-09-05T08:46:26.339Z,101393.63
2018-09-05T08:47:31.244Z,101398.33
2018-09-05T08:48:35.530Z,101394.91
2018-09-05T08:50:07.427Z,101393.17
2018-09-05T08:51:11.670Z,101395.20
2018-09-05T08:52:15.838Z,101390.42
2018-09-05T08:53:20.267Z,101396.81
2018-09-05T08:54:24.447Z,101399.52
2018-09-05T08:55:28.765Z,101392.76
2018-09-05T08:56:33.054Z,101398.50
2018-09-05T08:57:37.256Z,101395.46
2018-09-05T08:58:41.534Z,101394.45
2018-09-05T08:59:45.720Z,101396.44
2018-09-05T09:00:49.943Z,101396.27
2018-09-05T09:01:54.139Z,101402.66
2018-09-05T09:02:58.332Z,101398.42
2018-09-05T09:04:02.470Z,101396.98
2018-09-05T09:05:07.042Z,101397.97
2018-09-05T09:06:11.246Z,101407.91
2018-09-05T09:07:15.443Z,101403.46
2018-09-05T09:08:19.657Z,101399.56
2018-09-05T09:09:23.810Z,101399.18
2018-09-05T09:10:28.099Z,101397.45
2018-09-05T09:11:32.321Z,101398.42
2018-09-05T09:12:36.588Z,101396.05
2018-09-05T09:13:40.802Z,101397.31
2018-09-05T09:14:44.951Z,101396.63
2018-09-05T09:15:49.542Z,101394.56
2018-09-05T09:16:53.807Z,101396.55
2018-09-05T09:17:58.153Z,101389.94
2018-09-05T09:19:02.361Z,101395.81
2018-09-05T09:20:06.814Z,101393.44
2018-09-05T09:21:10.989Z,101390.16
2018-09-05T09:22:15.212Z,101386.73
2018-09-05T09:23:19.808Z,101389.56
2018-09-05T09:24:24.043Z,101389.52
2018-09-05T09:25:28.308Z,101386.42
2018-09-05T09:26:32.588Z,101387.08
2018-09-05T09:27:37.201Z,101386.19
2018-09-05T09:28:41.374Z,101389.53
2018-09-05T09:29:46.383Z,101385.59
2018-09-05T09:30:50.658Z,101386.55
2018-09-05T09:31:54.859Z,101383.16
2018-09-05T09:32:59.084Z,101388.19
2018-09-05T09:34:03.671Z,101386.95
2018-09-05T09:35:08.099Z,101384.06
2018-09-05T09:36:12.288Z,101390.95
2018-09-05T09:37:16.490Z,101385.32
2018-09-05T09:38:20.644Z,101379.21
2018-09-05T09:39:24.992Z,101386.28
2018-09-05T09:40:29.252Z,101382.88
2018-09-05T09:41:33.448Z,101377.46
2018-09-05T09:42:37.657Z,101377.07
2018-09-05T09:43:41.871Z,101376.67
2018-09-05T09:44:46.076Z,101378.99
2018-09-05T09:45:50.293Z,101379.95
2018-09-05T09:46:54.509Z,101380.59
2018-09-05T09:47:58.995Z,101380.23
2018-09-05T09:49:03.260Z,101381.19
2018-09-05T09:50:07.705Z,101380.13
2018-09-05T09:51:11.935Z,101380.09
2018-09-05T09:52:22.240Z,101381.05
2018-09-05T09:53:26.735Z,101380.55
2018-09-05T09:54:30.970Z,101380.88
2018-09-05T09:55:35.200Z,101377.65
2018-09-05T09:56:39.405Z,101372.73
2018-09-05T09:57:43.602Z,101373.58
2018-09-05T09:58:48.013Z,101373.58
2018-09-05T09:59:52.141Z,101370.54
2018-09-05T10:01:01.688Z,101373.77
2018-09-05T10:02:11.238Z,101369.19
2018-09-05T10:03:20.657Z,101364.27
2018-09-05T10:04:30.235Z,101370.20
2018-09-05T10:05:39.609Z,101370.72
2018-09-05T10:06:48.106Z,101364.45
2018-09-05T10:07:57.343Z,101364.45
2018-09-05T10:09:07.125Z,101366.14
2018-09-05T10:10:17.193Z,101366.80
2018-09-05T10:11:25.367Z,101365.23
2018-09-05T10:12:34.759Z,101364.20
2018-09-05T10:13:44.225Z,101366.41
2018-09-05T10:15:54.280Z,101359.41
2018-09-05T10:17:03.862Z,101358.89
2018-09-05T10:18:13.228Z,101361.94
2018-09-05T10:19:17.782Z,101357.87
2018-09-05T10:20:21.985Z,101353.07
2018-09-05T10:21:26.190Z,101354.43
2018-09-05T10:22:30.910Z,101359.45
2018-09-05T10:23:35.055Z,101356.23
2018-09-05T10:24:39.522Z,101354.80
2018-09-05T10:25:43.756Z,101350.84
2018-09-05T10:26:48.103Z,101353.16
2018-09-05T10:27:52.356Z,101358.19
2018-09-05T10:28:56.610Z,101348.29
2018-09-05T10:30:00.890Z,101351.66
2018-09-05T10:31:05.138Z,101345.83
2018-09-05T10:32:09.344Z,101344.77
2018-09-05T10:33:13.759Z,101350.64
2018-09-05T10:34:17.929Z,101350.45
2018-09-05T10:35:22.186Z,101354.12
2018-09-05T10:36:26.366Z,101352.03
2018-09-05T10:37:30.865Z,101345.91
2018-09-05T10:38:35.273Z,101344.84
2018-09-05T10:39:39.464Z,101347.99
2018-09-05T10:40:43.842Z,101346.75
2018-09-05T10:41:48.164Z,101347.41
2018-09-05T10:42:52.362Z,101348.87
2018-09-05T10:43:56.571Z,101346.30
2018-09-05T10:45:00.785Z,101347.25
2018-09-05T10:46:04.974Z,101344.12
2018-09-05T10:47:09.171Z,101342.39
2018-09-05T10:48:14.583Z,101346.88
2018-09-05T10:49:18.957Z,101341.58
2018-09-05T10:50:23.166Z,101341.17
2018-09-05T10:51:32.600Z,101332.61
2018-09-05T10:52:36.804Z,101332.31
2018-09-05T10:53:41.003Z,101335.13
2018-09-05T10:54:45.182Z,101336.08
2018-09-05T10:55:49.520Z,101338.42
2018-09-05T10:56:53.700Z,101331.51
2018-09-05T10:57:57.993Z,101329.73
2018-09-05T10:59:02.187Z,101330.69
2018-09-05T11:00:06.474Z,101324.84
2018-09-05T11:01:10.669Z,101324.45
2018-09-05T11:02:14.838Z,101324.34
2018-09-05T11:03:19.010Z,101323.41
2018-09-05T11:04:23.294Z,101320.50
2018-09-05T11:05:27.473Z,101320.08
2018-09-05T11:06:31.626Z,101323.77
2018-09-05T11:07:35.776Z,101319.47
2018-09-05T11:08:39.944Z,101323.36
2018-09-05T11:09:44.146Z,101320.12
2018-09-05T11:10:48.387Z,101313.10
2018-09-05T11:11:52.496Z,101318.86
2018-09-05T11:12:56.658Z,101319.48
2018-09-05T11:14:00.848Z,101316.25
2018-09-05T11:15:05.047Z,101316.77
2018-09-05T11:16:09.221Z,101314.05
2018-09-05T11:17:13.426Z,101309.87
2018-09-05T11:18:17.557Z,101310.71
2018-09-05T11:19:21.784Z,101306.31
2018-09-05T11:20:25.981Z,101309.67
2018-09-05T11:21:30.238Z,101300.78
2018-09-05T11:22:34.476Z,101303.50
2018-09-05T11:23:45.300Z,101299.74
2018-09-05T11:24:49.673Z,101304.14
2018-09-05T11:25:53.894Z,101305.18
2018-09-05T11:26:58.240Z,101304.53
2018-09-05T11:28:02.529Z,101301.52
2018-09-05T11:29:07.056Z,101299.84
2018-09-05T11:30:11.167Z,101300.45
2018-09-05T11:31:15.421Z,101305.70
2018-09-05T11:32:19.626Z,101307.38
2018-09-05T11:33:23.786Z,101302.78
2018-09-05T11:34:27.973Z,101305.50
2018-09-05T11:35:32.144Z,101303.08
2018-09-05T11:36:36.382Z,101304.24
2018-09-05T11:37:40.619Z,101304.24
2018-09-05T11:38:44.894Z,101304.02
2018-09-05T11:39:49.043Z,101302.37
2018-09-05T11:40:53.304Z,101301.63
2018-09-05T11:41:57.495Z,101302.56
2018-09-05T11:43:01.706Z,101300.78
2018-09-05T11:44:06.251Z,101303.41
2018-09-05T11:45:10.441Z,101301.95
2018-09-05T11:46:14.978Z,101300.17
2018-09-05T11:47:19.204Z,101298.71
2018-09-05T11:48:23.702Z,101301.30
2018-09-05T11:49:27.889Z,101294.63
2018-09-05T11:50:32.084Z,101293.36
2018-09-05T11:51:36.642Z,101293.27
2018-09-05T11:52:40.884Z,101299.09
2018-09-05T11:53:45.068Z,101293.97
2018-09-05T11:54:49.264Z,101297.53
2018-09-05T11:55:53.430Z,101295.42
2018-09-05T11:56:57.609Z,101293.22
2018-09-05T11:58:01.831Z,101294.39
2018-09-05T11:59:06.021Z,101297.72
2018-09-05T12:00:10.259Z,101298.56
2018-09-05T12:01:14.431Z,101296.68
2018-09-05T12:02:18.828Z,101296.16
2018-09-05T12:03:23.009Z,101301.73
2018-09-05T12:04:27.200Z,101297.45
2018-09-05T12:05:31.392Z,101303.83
2018-09-05T12:06:35.763Z,101292.52
2018-09-05T12:07:39.929Z,101295.01
2018-09-05T12:08:44.173Z,101301.94
2018-09-05T12:09:48.350Z,101295.23
2018-09-05T12:10:52.575Z,101287.38
2018-09-05T12:11:56.798Z,101291.56
2018-09-05T12:13:00.949Z,101288.92
2018-09-05T12:14:05.167Z,101294.27
2018-09-05T12:15:09.360Z,101288.30
2018-09-05T12:16:13.542Z,101288.06
2018-09-05T12:17:17.794Z,101283.55